createdAt,value
2018-10-02T00:00:27.862Z,0.00
2018-10-02T00:01:27.764Z,0.00
2018-10-02T00:02:27.656Z,0.00
2018-10-02T00:03:27.852Z,0.00
2018-10-02T00:04:27.451Z,0.00
2018-10-02T00:05:27.340Z,0.00
2018-10-02T00:06:27.241Z,0.00
2018-10-02T00:07:27.129Z,0.00
2018-10-02T00:08:27.031Z,0.00
2018-10-02T00:09:26.920Z,0.00
2018-10-02T00:10:26.818Z,0.00
2018-10-02T00:11:26.707Z,0.00
2018-10-02T00:12:26.605Z,0.00
2018-10-02T00:13:26.508Z,0.00
2018-10-02T00:14:26.395Z,0.00
2018-10-02T00:15:26.297Z,0.00
2018-10-02T00:16:26.184Z,0.00
2018-10-02T00:17:26.084Z,0.00
2018-10-02T00:18:25.974Z,0.00
2018-10-02T00:19:25.873Z,0.00
2018-10-02T00:20:25.764Z,0.00
2018-10-02T00:21:25.661Z,0.00
2018-10-02T00:22:25.563Z,0.00
2018-10-02T00:23:25.701Z,0.00
2018-10-02T00:24:25.352Z,0.00
2018-10-02T00:25:25.238Z,0.00
2018-10-02T00:26:25.140Z,0.00
2018-10-02T00:27:25.028Z,0.00
2018-10-02T00:28:24.930Z,0.00
2018-10-02T00:29:24.816Z,0.00
2018-10-02T00:30:24.716Z,0.00
2018-10-02T00:31:24.639Z,0.00
2018-10-02T00:32:24.647Z,0.00
2018-10-02T00:33:24.407Z,0.00
2018-10-02T00:34:24.293Z,0.00
2018-10-02T00:35:24.193Z,0.00
2018-10-02T00:36:24.083Z,0.00
2018-10-02T00:37:23.984Z,0.00
2018-10-02T00:38:24.172Z,0.00
2018-10-02T00:39:23.772Z,0.00
2018-10-02T00:40:23.673Z,0.00
2018-10-02T00:41:23.560Z,0.00
2018-10-02T00:42:23.461Z,0.00
2018-10-02T00:43:23.350Z,0.00
2018-10-02T00:44:23.249Z,0.00
2018-10-02T00:45:23.138Z,0.00
2018-10-02T00:46:23.038Z,0.00
2018-10-02T00:47:22.926Z,0.00
2018-10-02T00:48:22.826Z,0.00
2018-10-02T00:49:22.715Z,0.00
2018-10-02T00:50:22.615Z,0.00
2018-10-02T00:51:22.517Z,0.00
2018-10-02T00:52:22.409Z,0.00
2018-10-02T00:53:22.305Z,0.00
2018-10-02T00:54:22.193Z,0.00
2018-10-02T00:55:22.093Z,0.00
2018-10-02T00:56:21.981Z,0.00
2018-10-02T00:57:21.881Z,0.00
2018-10-02T00:58:22.069Z,0.00
2018-10-02T00:59:21.671Z,0.00
2018-10-02T01:00:21.559Z,0.00
2018-10-02T01:01:21.472Z,0.00
2018-10-02T01:02:21.350Z,0.00
2018-10-02T01:03:21.250Z,0.00
2018-10-02T01:04:21.149Z,0.00
2018-10-02T01:05:21.036Z,0.00
2018-10-02T01:06:20.936Z,0.00
2018-10-02T01:07:20.826Z,0.00
2018-10-02T01:08:20.726Z,0.00
2018-10-02T01:09:20.613Z,0.00
2018-10-02T01:10:20.514Z,0.00
2018-10-02T01:11:20.403Z,0.00
2018-10-02T01:12:20.304Z,0.00
2018-10-02T01:13:20.191Z,0.00
2018-10-02T01:14:20.104Z,0.00
2018-10-02T01:15:19.984Z,0.00
2018-10-02T01:16:19.880Z,0.00
2018-10-02T01:17:19.770Z,0.00
2018-10-02T01:18:19.969Z,0.00
2018-10-02T01:19:19.570Z,0.00
2018-10-02T01:20:19.462Z,0.00
2018-10-02T01:21:19.359Z,0.00
2018-10-02T01:22:19.245Z,0.00
2018-10-02T01:23:19.146Z,0.00
2018-10-02T01:24:19.035Z,0.00
2018-10-02T01:25:18.936Z,0.00
2018-10-02T01:26:18.824Z,0.00
2018-10-02T01:27:18.723Z,0.00
2018-10-02T01:28:18.873Z,0.00
2018-10-02T01:29:18.512Z,0.00
2018-10-02T01:30:18.406Z,0.00
2018-10-02T01:31:18.301Z,0.00
2018-10-02T01:32:18.202Z,0.00
2018-10-02T01:33:18.094Z,0.00
2018-10-02T01:34:17.991Z,0.00
2018-10-02T01:35:17.878Z,0.00
2018-10-02T01:36:17.778Z,0.00
2018-10-02T01:37:17.667Z,0.00
2018-10-02T01:38:17.818Z,0.00
2018-10-02T01:39:17.455Z,0.00
2018-10-02T01:40:17.356Z,0.00
2018-10-02T01:41:17.245Z,0.00
2018-10-02T01:42:17.146Z,0.00
2018-10-02T01:43:17.033Z,0.00
2018-10-02T01:44:16.934Z,0.00
2018-10-02T01:45:16.822Z,0.00
2018-10-02T01:46:16.722Z,0.00
2018-10-02T01:47:16.624Z,0.00
2018-10-02T01:48:16.510Z,0.00
2018-10-02T01:49:16.411Z,0.00
2018-10-02T01:50:16.300Z,0.00
2018-10-02T01:51:16.200Z,0.00
2018-10-02T01:52:16.089Z,0.00
2018-10-02T01:53:15.987Z,0.00
2018-10-02T01:54:15.878Z,0.00
2018-10-02T01:55:15.777Z,0.00
2018-10-02T01:56:15.666Z,0.00
2018-10-02T01:57:15.566Z,0.00
2018-10-02T01:58:15.703Z,0.00
2018-10-02T01:59:15.355Z,0.00
2018-10-02T02:00:15.245Z,0.00
2018-10-02T02:01:15.143Z,0.00
2018-10-02T02:02:15.033Z,0.00
2018-10-02T02:03:14.932Z,0.00
2018-10-02T02:04:14.821Z,0.00
2018-10-02T02:05:14.721Z,0.00
2018-10-02T02:06:14.620Z,0.00
2018-10-02T02:07:14.509Z,0.00
2018-10-02T02:08:14.412Z,0.00
2018-10-02T02:09:14.298Z,0.00
2018-10-02T02:10:14.200Z,0.00
2018-10-02T02:11:14.087Z,0.00
2018-10-02T02:12:13.988Z,0.00
2018-10-02T02:13:13.876Z,0.00
2018-10-02T02:14:13.776Z,0.00
2018-10-02T02:15:13.665Z,0.00
2018-10-02T02:16:13.564Z,0.00
2018-10-02T02:17:13.452Z,0.00
2018-10-02T02:18:13.352Z,0.00
2018-10-02T02:19:13.274Z,0.00
2018-10-02T02:20:13.142Z,0.00
2018-10-02T02:21:13.030Z,0.00
2018-10-02T02:22:12.942Z,0.00
2018-10-02T02:23:12.820Z,0.00
2018-10-02T02:24:12.718Z,0.00
2018-10-02T02:25:12.619Z,0.00
2018-10-02T02:26:12.506Z,0.00
2018-10-02T02:27:12.408Z,0.00
2018-10-02T02:28:12.295Z,0.00
2018-10-02T02:29:12.197Z,0.00
2018-10-02T02:30:12.085Z,0.00
2018-10-02T02:31:11.984Z,0.00
2018-10-02T02:32:11.874Z,0.00
2018-10-02T02:33:11.775Z,0.00
2018-10-02T02:34:11.662Z,0.00
2018-10-02T02:35:11.569Z,0.00
2018-10-02T02:36:11.451Z,0.00
2018-10-02T02:37:11.351Z,0.00
2018-10-02T02:38:11.241Z,0.00
2018-10-02T02:39:11.141Z,0.00
2018-10-02T02:40:11.027Z,0.00
2018-10-02T02:41:10.929Z,0.00
2018-10-02T02:42:10.816Z,0.00
2018-10-02T02:43:10.969Z,0.00
2018-10-02T02:44:10.605Z,0.00
2018-10-02T02:45:10.507Z,0.00
2018-10-02T02:46:10.392Z,0.00
2018-10-02T02:47:10.294Z,0.00
2018-10-02T02:48:10.186Z,0.00
2018-10-02T02:49:10.083Z,0.00
2018-10-02T02:50:09.978Z,0.00
2018-10-02T02:51:09.872Z,0.00
2018-10-02T02:52:09.772Z,0.00
2018-10-02T02:53:09.664Z,0.00
2018-10-02T02:54:09.549Z,0.00
2018-10-02T02:55:09.448Z,0.00
2018-10-02T02:56:09.349Z,0.00
2018-10-02T02:57:09.239Z,0.00
2018-10-02T02:58:09.138Z,0.00
2018-10-02T02:59:09.026Z,0.00
2018-10-02T03:00:08.927Z,0.00
2018-10-02T03:01:08.815Z,0.00
2018-10-02T03:02:08.716Z,0.00
2018-10-02T03:03:08.603Z,0.00
2018-10-02T03:04:08.505Z,0.00
2018-10-02T03:05:08.394Z,0.00
2018-10-02T03:06:08.296Z,0.00
2018-10-02T03:07:08.181Z,0.00
2018-10-02T03:08:08.083Z,0.00
2018-10-02T03:09:07.970Z,0.00
2018-10-02T03:10:07.871Z,0.00
2018-10-02T03:11:07.760Z,0.00
2018-10-02T03:12:07.660Z,0.00
2018-10-02T03:13:07.846Z,0.00
2018-10-02T03:14:07.448Z,0.00
2018-10-02T03:15:07.335Z,0.00
2018-10-02T03:16:07.235Z,0.00
2018-10-02T03:17:07.123Z,0.00
2018-10-02T03:18:07.025Z,0.00
2018-10-02T03:19:06.912Z,0.00
2018-10-02T03:20:06.813Z,0.00
2018-10-02T03:21:06.702Z,0.00
2018-10-02T03:22:06.603Z,0.00
2018-10-02T03:23:06.740Z,0.00
2018-10-02T03:24:06.389Z,0.00
2018-10-02T03:25:06.280Z,0.00
2018-10-02T03:26:06.180Z,0.00
2018-10-02T03:27:06.068Z,0.00
2018-10-02T03:28:05.968Z,0.00
2018-10-02T03:29:05.857Z,0.00
2018-10-02T03:30:05.837Z,0.00
2018-10-02T03:31:05.657Z,0.00
2018-10-02T03:32:05.544Z,0.00
2018-10-02T03:33:05.445Z,0.00
2018-10-02T03:34:05.334Z,0.00
2018-10-02T03:35:05.235Z,0.00
2018-10-02T03:36:05.124Z,0.00
2018-10-02T03:37:05.022Z,0.00
2018-10-02T03:38:04.911Z,0.00
2018-10-02T03:39:04.803Z,0.00
2018-10-02T03:40:04.700Z,0.00
2018-10-02T03:41:04.600Z,0.00
2018-10-02T03:42:04.489Z,0.00
2018-10-02T03:43:04.389Z,0.00
2018-10-02T03:44:04.276Z,0.00
2018-10-02T03:45:04.178Z,0.00
2018-10-02T03:46:04.069Z,0.00
2018-10-02T03:47:03.967Z,0.00
2018-10-02T03:48:03.854Z,0.00
2018-10-02T03:49:03.754Z,0.00
2018-10-02T03:50:03.646Z,0.00
2018-10-02T03:51:03.543Z,0.00
2018-10-02T03:52:03.431Z,0.00
2018-10-02T03:53:03.331Z,0.00
2018-10-02T03:54:03.221Z,0.00
2018-10-02T03:55:03.121Z,0.00
2018-10-02T03:56:03.008Z,0.00
2018-10-02T03:57:02.909Z,0.00
2018-10-02T03:58:02.797Z,0.00
2018-10-02T03:59:02.702Z,0.00
2018-10-02T04:00:02.586Z,0.00
2018-10-02T04:01:02.487Z,0.00
2018-10-02T04:02:02.376Z,0.00
2018-10-02T04:03:02.286Z,0.00
2018-10-02T04:04:02.167Z,0.00
2018-10-02T04:05:02.066Z,0.00
2018-10-02T04:06:01.953Z,0.00
2018-10-02T04:07:01.856Z,0.00
2018-10-02T04:08:01.991Z,0.00
2018-10-02T04:09:01.642Z,0.00
2018-10-02T04:10:01.530Z,0.00
2018-10-02T04:11:01.436Z,0.00
2018-10-02T04:12:01.330Z,0.00
2018-10-02T04:13:01.232Z,0.00
2018-10-02T04:14:01.118Z,0.00
2018-10-02T04:15:01.007Z,0.00
2018-10-02T04:16:00.907Z,0.00
2018-10-02T04:17:00.808Z,0.00
2018-10-02T04:18:01.010Z,0.00
2018-10-02T04:19:00.584Z,0.00
2018-10-02T04:20:00.485Z,0.00
2018-10-02T04:21:00.379Z,0.00
2018-10-02T04:22:00.273Z,0.00
2018-10-02T04:23:00.162Z,0.00
2018-10-02T04:24:00.063Z,0.00
2018-10-02T04:24:59.951Z,0.00
2018-10-02T04:25:59.850Z,0.00
2018-10-02T04:26:59.739Z,0.00
2018-10-02T04:27:59.711Z,0.00
2018-10-02T04:28:59.527Z,0.00
2018-10-02T04:29:59.428Z,0.00
2018-10-02T04:30:59.316Z,0.00
2018-10-02T04:31:59.217Z,0.00
2018-10-02T04:32:59.104Z,0.00
2018-10-02T04:33:59.058Z,0.00
2018-10-02T04:34:58.904Z,0.00
2018-10-02T04:35:58.793Z,0.00
2018-10-02T04:36:58.681Z,0.00
2018-10-02T04:37:58.884Z,4.00
2018-10-02T04:38:58.473Z,4.00
2018-10-02T04:39:58.372Z,0.00
2018-10-02T04:40:58.258Z,4.00
2018-10-02T04:41:58.160Z,4.00
2018-10-02T04:42:58.049Z,4.00
2018-10-02T04:43:57.948Z,4.00
2018-10-02T04:44:57.836Z,8.00
2018-10-02T04:45:57.738Z,8.00
2018-10-02T04:46:57.629Z,8.00
2018-10-02T04:47:57.527Z,12.00
2018-10-02T04:48:57.414Z,12.00
2018-10-02T04:49:57.314Z,16.00
2018-10-02T04:50:57.203Z,16.00
2018-10-02T04:51:57.103Z,24.00
2018-10-02T04:52:56.991Z,28.00
2018-10-02T04:53:56.892Z,32.00
2018-10-02T04:54:56.829Z,36.00
2018-10-02T04:55:56.785Z,44.00
2018-10-02T04:56:56.569Z,52.00
2018-10-02T04:57:56.468Z,60.00
2018-10-02T04:58:56.357Z,68.00
2018-10-02T04:59:56.258Z,76.00
2018-10-02T05:00:56.145Z,88.00
2018-10-02T05:01:56.047Z,100.00
2018-10-02T05:02:55.937Z,112.00
2018-10-02T05:03:55.834Z,128.00
2018-10-02T05:04:55.723Z,144.00
2018-10-02T05:05:55.625Z,156.00
2018-10-02T05:06:55.511Z,180.00
2018-10-02T05:07:55.417Z,196.00
2018-10-02T05:08:55.300Z,204.00
2018-10-02T05:09:55.200Z,232.00
2018-10-02T05:10:55.089Z,252.00
2018-10-02T05:11:54.994Z,288.00
2018-10-02T05:12:54.877Z,296.00
2018-10-02T05:13:54.777Z,328.00
2018-10-02T05:14:54.668Z,356.00
2018-10-02T05:15:54.567Z,380.00
2018-10-02T05:16:54.461Z,408.00
2018-10-02T05:17:54.354Z,456.00
2018-10-02T05:18:54.255Z,468.00
2018-10-02T05:19:54.144Z,512.00
2018-10-02T05:20:54.033Z,540.00
2018-10-02T05:21:53.933Z,568.00
2018-10-02T05:22:53.832Z,596.00
2018-10-02T05:23:53.721Z,636.00
2018-10-02T05:24:53.622Z,668.00
2018-10-02T05:25:53.509Z,716.00
2018-10-02T05:26:53.413Z,800.00
2018-10-02T05:27:53.298Z,804.00
2018-10-02T05:28:53.202Z,844.00
2018-10-02T05:29:53.087Z,936.00
2018-10-02T05:30:52.987Z,1004.00
2018-10-02T05:31:52.879Z,1068.00
2018-10-02T05:32:52.836Z,1088.00
2018-10-02T05:33:52.664Z,1180.00
2018-10-02T05:34:52.595Z,1236.00
2018-10-02T05:35:52.453Z,1292.00
2018-10-02T05:36:52.354Z,1340.00
2018-10-02T05:37:52.241Z,1308.00
2018-10-02T05:38:52.141Z,1496.00
2018-10-02T05:39:52.044Z,1532.00
2018-10-02T05:40:51.932Z,1608.00
2018-10-02T05:41:51.832Z,1676.00
2018-10-02T05:42:51.765Z,1756.00
2018-10-02T05:43:51.619Z,1808.00
2018-10-02T05:44:51.512Z,1864.00
2018-10-02T05:45:51.408Z,1936.00
2018-10-02T05:46:51.296Z,1984.00
2018-10-02T05:47:51.198Z,2040.00
2018-10-02T05:48:51.097Z,2092.00
2018-10-02T05:49:50.986Z,2132.00
2018-10-02T05:50:50.888Z,2204.00
2018-10-02T05:51:50.776Z,2200.00
2018-10-02T05:52:50.674Z,2176.00
2018-10-02T05:53:50.565Z,2304.00
2018-10-02T05:54:50.464Z,2336.00
2018-10-02T05:55:50.364Z,2384.00
2018-10-02T05:56:50.252Z,2400.00
2018-10-02T05:57:50.153Z,2468.00
2018-10-02T05:58:50.043Z,2492.00
2018-10-02T05:59:49.941Z,2644.00
2018-10-02T06:00:49.843Z,2644.00
2018-10-02T06:01:49.732Z,2644.00
2018-10-02T06:02:49.637Z,2700.00
2018-10-02T06:03:49.591Z,2784.00
2018-10-02T06:04:49.419Z,2844.00
2018-10-02T06:05:49.319Z,2928.00
2018-10-02T06:06:49.207Z,2984.00
2018-10-02T06:07:49.109Z,3008.00
2018-10-02T06:08:49.009Z,3100.00
2018-10-02T06:09:48.926Z,3152.00
2018-10-02T06:10:48.798Z,3188.00
2018-10-02T06:11:48.699Z,3108.00
2018-10-02T06:12:48.603Z,2944.00
2018-10-02T06:13:48.486Z,2768.00
2018-10-02T06:14:48.386Z,2692.00
2018-10-02T06:15:48.275Z,2628.00
2018-10-02T06:16:48.176Z,2688.00
2018-10-02T06:17:48.066Z,2856.00
2018-10-02T06:18:48.052Z,3092.00
2018-10-02T06:19:47.865Z,3376.00
2018-10-02T06:20:47.754Z,3804.00
2018-10-02T06:21:47.654Z,4292.00
2018-10-02T06:22:47.805Z,4704.00
2018-10-02T06:23:47.444Z,5048.00
2018-10-02T06:24:47.405Z,5280.00
2018-10-02T06:25:47.243Z,5356.00
2018-10-02T06:26:47.131Z,5324.00
2018-10-02T06:27:47.032Z,5312.00
2018-10-02T06:28:46.933Z,5204.00
2018-10-02T06:29:46.821Z,5120.00
2018-10-02T06:30:46.720Z,5112.00
2018-10-02T06:31:46.624Z,5112.00
2018-10-02T06:32:46.548Z,5224.00
2018-10-02T06:33:46.411Z,5500.00
2018-10-02T06:34:46.311Z,5688.00
2018-10-02T06:35:46.200Z,5812.00
2018-10-02T06:36:46.128Z,6016.00
2018-10-02T06:37:46.000Z,6020.00
2018-10-02T06:38:45.895Z,5820.00
2018-10-02T06:39:45.789Z,5908.00
2018-10-02T06:40:45.677Z,5952.00
2018-10-02T06:41:45.578Z,5896.00
2018-10-02T06:42:45.479Z,5740.00
2018-10-02T06:43:45.475Z,5568.00
2018-10-02T06:44:45.342Z,5640.00
2018-10-02T06:45:45.168Z,5504.00
2018-10-02T06:46:45.068Z,5328.00
2018-10-02T06:47:44.956Z,5284.00
2018-10-02T06:48:44.857Z,5348.00
2018-10-02T06:49:44.756Z,5364.00
2018-10-02T06:50:44.650Z,5448.00
2018-10-02T06:51:44.601Z,5664.00
2018-10-02T06:52:44.702Z,5864.00
2018-10-02T06:53:44.334Z,6224.00
2018-10-02T06:54:44.234Z,6568.00
2018-10-02T06:55:44.135Z,7060.00
2018-10-02T06:56:44.133Z,7716.00
2018-10-02T06:57:43.925Z,8484.00
2018-10-02T06:58:43.826Z,9020.00
2018-10-02T06:59:43.726Z,9448.00
2018-10-02T07:00:43.613Z,9560.00
2018-10-02T07:01:43.513Z,9588.00
2018-10-02T07:02:43.461Z,9492.00
2018-10-02T07:03:43.316Z,9384.00
2018-10-02T07:04:43.203Z,9432.00
2018-10-02T07:05:43.104Z,9576.00
2018-10-02T07:06:43.071Z,9836.00
2018-10-02T07:07:42.905Z,9756.00
2018-10-02T07:08:42.823Z,9716.00
2018-10-02T07:09:42.693Z,9256.00
2018-10-02T07:10:42.593Z,8852.00
2018-10-02T07:11:42.494Z,8304.00
2018-10-02T07:12:42.447Z,7804.00
2018-10-02T07:13:42.284Z,7684.00
2018-10-02T07:14:42.277Z,7868.00
2018-10-02T07:15:42.085Z,8144.00
2018-10-02T07:16:41.972Z,8236.00
2018-10-02T07:17:41.873Z,8252.00
2018-10-02T07:18:41.773Z,8276.00
2018-10-02T07:19:41.673Z,8348.00
2018-10-02T07:20:41.590Z,8492.00
2018-10-02T07:21:41.463Z,8720.00
2018-10-02T07:22:41.364Z,8940.00
2018-10-02T07:23:41.267Z,9112.00
2018-10-02T07:24:41.165Z,9072.00
2018-10-02T07:25:41.053Z,8800.00
2018-10-02T07:26:41.109Z,8324.00
2018-10-02T07:27:40.925Z,7884.00
2018-10-02T07:28:40.754Z,7592.00
2018-10-02T07:29:40.644Z,7560.00
2018-10-02T07:30:40.623Z,7628.00
2018-10-02T07:31:40.445Z,7720.00
2018-10-02T07:32:40.490Z,7868.00
2018-10-02T07:33:40.246Z,7980.00
2018-10-02T07:34:40.133Z,8148.00
2018-10-02T07:35:40.033Z,8436.00
2018-10-02T07:36:40.006Z,8800.00
2018-10-02T07:37:40.133Z,9172.00
2018-10-02T07:38:39.802Z,9520.00
2018-10-02T07:39:39.624Z,9688.00
2018-10-02T07:40:39.524Z,9680.00
2018-10-02T07:41:39.466Z,9612.00
2018-10-02T07:42:39.326Z,9548.00
2018-10-02T07:43:39.212Z,9408.00
2018-10-02T07:44:39.173Z,9204.00
2018-10-02T07:45:39.015Z,8948.00
2018-10-02T07:46:38.915Z,8744.00
2018-10-02T07:47:38.874Z,8540.00
2018-10-02T07:48:38.703Z,8388.00
2018-10-02T07:49:38.604Z,8356.00
2018-10-02T07:50:38.577Z,8208.00
2018-10-02T07:51:38.406Z,8076.00
2018-10-02T07:52:38.292Z,7836.00
2018-10-02T07:53:38.207Z,7444.00
2018-10-02T07:54:38.094Z,6984.00
2018-10-02T07:55:38.099Z,6576.00
2018-10-02T07:56:37.933Z,6232.00
2018-10-02T07:57:38.083Z,6040.00
2018-10-02T07:58:37.684Z,5912.00
2018-10-02T07:59:37.623Z,6156.00
2018-10-02T08:00:37.485Z,6540.00
2018-10-02T08:01:37.375Z,7408.00
2018-10-02T08:02:37.314Z,8296.00
2018-10-02T08:03:37.175Z,9108.00
2018-10-02T08:04:37.101Z,9792.00
2018-10-02T08:05:37.050Z,10380.00
2018-10-02T08:06:36.864Z,10736.00
2018-10-02T08:07:36.764Z,10256.00
2018-10-02T08:08:36.678Z,9212.00
2018-10-02T08:09:36.570Z,8840.00
2018-10-02T08:10:36.466Z,8496.00
2018-10-02T08:11:36.397Z,8264.00
2018-10-02T08:12:36.255Z,7696.00
2018-10-02T08:13:36.170Z,7256.00
2018-10-02T08:14:36.121Z,7256.00
2018-10-02T08:15:35.956Z,7852.00
2018-10-02T08:16:35.844Z,9132.00
2018-10-02T08:17:36.105Z,10896.00
2018-10-02T08:18:35.648Z,12728.00
2018-10-02T08:19:35.547Z,14320.00
2018-10-02T08:20:35.507Z,14708.00
2018-10-02T08:21:35.340Z,13880.00
2018-10-02T08:22:35.235Z,12588.00
2018-10-02T08:23:35.159Z,12288.00
2018-10-02T08:24:35.037Z,12652.00
2018-10-02T08:25:34.936Z,13216.00
2018-10-02T08:26:34.861Z,14064.00
2018-10-02T08:27:34.727Z,14708.00
2018-10-02T08:28:34.629Z,13532.00
2018-10-02T08:29:34.676Z,10960.00
2018-10-02T08:30:34.427Z,10140.00
2018-10-02T08:31:34.343Z,10364.00
2018-10-02T08:32:34.269Z,10888.00
2018-10-02T08:33:34.117Z,11368.00
2018-10-02T08:34:34.016Z,11648.00
2018-10-02T08:35:33.978Z,11800.00
2018-10-02T08:36:33.881Z,11676.00
2018-10-02T08:37:34.018Z,11316.00
2018-10-02T08:38:33.671Z,11100.00
2018-10-02T08:39:33.519Z,11008.00
2018-10-02T08:40:33.408Z,11236.00
2018-10-02T08:41:33.309Z,12028.00
2018-10-02T08:42:33.209Z,13208.00
2018-10-02T08:43:33.164Z,13820.00
2018-10-02T08:44:33.058Z,14496.00
2018-10-02T08:45:32.911Z,15160.00
2018-10-02T08:46:32.811Z,14984.00
2018-10-02T08:47:32.777Z,14196.00
2018-10-02T08:48:32.622Z,13360.00
2018-10-02T08:49:32.500Z,13260.00
2018-10-02T08:50:32.430Z,13916.00
2018-10-02T08:51:32.305Z,15012.00
2018-10-02T08:52:32.201Z,15596.00
2018-10-02T08:53:32.156Z,15880.00
2018-10-02T08:54:32.003Z,15968.00
2018-10-02T08:55:31.904Z,16564.00
2018-10-02T08:56:31.804Z,18080.00
2018-10-02T08:57:31.954Z,19072.00
2018-10-02T08:58:31.604Z,19072.00
2018-10-02T08:59:31.496Z,17888.00
2018-10-02T09:00:31.456Z,16540.00
2018-10-02T09:01:31.295Z,16032.00
2018-10-02T09:02:31.196Z,16292.00
2018-10-02T09:03:31.096Z,16112.00
2018-10-02T09:04:30.999Z,15196.00
2018-10-02T09:05:30.897Z,14736.00
2018-10-02T09:06:30.831Z,14408.00
2018-10-02T09:07:30.698Z,14504.00
2018-10-02T09:08:30.600Z,14096.00
2018-10-02T09:09:30.499Z,14556.00
2018-10-02T09:10:30.399Z,15456.00
2018-10-02T09:11:30.300Z,15252.00
2018-10-02T09:12:30.250Z,14388.00
2018-10-02T09:13:30.103Z,13924.00
2018-10-02T09:14:30.002Z,13636.00
2018-10-02T09:15:29.922Z,13908.00
2018-10-02T09:16:29.800Z,14908.00
2018-10-02T09:17:29.690Z,16056.00
2018-10-02T09:18:29.594Z,16596.00
2018-10-02T09:19:29.491Z,17536.00
2018-10-02T09:20:29.393Z,17856.00
2018-10-02T09:21:29.321Z,18368.00
2018-10-02T09:22:29.193Z,18912.00
2018-10-02T09:23:29.093Z,18688.00
2018-10-02T09:24:29.015Z,18368.00
2018-10-02T09:25:28.894Z,18464.00
2018-10-02T09:26:28.797Z,19360.00
2018-10-02T09:27:28.745Z,20288.00
2018-10-02T09:28:28.653Z,20736.00
2018-10-02T09:29:28.502Z,20384.00
2018-10-02T09:30:28.445Z,19328.00
2018-10-02T09:31:28.299Z,17952.00
2018-10-02T09:32:28.200Z,17056.00
2018-10-02T09:33:28.133Z,15844.00
2018-10-02T09:34:28.000Z,15756.00
2018-10-02T09:35:27.901Z,16648.00
2018-10-02T09:36:27.851Z,17248.00
2018-10-02T09:37:28.051Z,18432.00
2018-10-02T09:38:27.602Z,18176.00
2018-10-02T09:39:27.547Z,18272.00
2018-10-02T09:40:27.404Z,16688.00
2018-10-02T09:41:27.303Z,15396.00
2018-10-02T09:42:27.241Z,15292.00
2018-10-02T09:43:27.130Z,15012.00
2018-10-02T09:44:27.007Z,14836.00
2018-10-02T09:45:26.951Z,14292.00
2018-10-02T09:46:26.808Z,13180.00
2018-10-02T09:47:26.720Z,12392.00
2018-10-02T09:48:26.652Z,12096.00
2018-10-02T09:49:26.509Z,11960.00
2018-10-02T09:50:26.426Z,12468.00
2018-10-02T09:51:26.323Z,13792.00
2018-10-02T09:52:26.223Z,16236.00
2018-10-02T09:53:26.112Z,19776.00
2018-10-02T09:54:26.063Z,19680.00
2018-10-02T09:55:25.913Z,17824.00
2018-10-02T09:56:25.817Z,16212.00
2018-10-02T09:57:25.962Z,15016.00
2018-10-02T09:58:25.635Z,14288.00
2018-10-02T09:59:25.522Z,13452.00
2018-10-02T10:00:25.441Z,13944.00
2018-10-02T10:01:25.315Z,14176.00
2018-10-02T10:02:25.257Z,13600.00
2018-10-02T10:03:25.117Z,13132.00
2018-10-02T10:04:25.051Z,14808.00
2018-10-02T10:05:24.919Z,14900.00
2018-10-02T10:06:24.818Z,11268.00
2018-10-02T10:07:24.720Z,11308.00
2018-10-02T10:08:24.621Z,8800.00
2018-10-02T10:09:24.520Z,8776.00
2018-10-02T10:10:24.481Z,7672.00
2018-10-02T10:11:24.323Z,10232.00
2018-10-02T10:12:24.222Z,10340.00
2018-10-02T10:13:24.122Z,9052.00
2018-10-02T10:14:24.025Z,10520.00
2018-10-02T10:15:23.925Z,13268.00
2018-10-02T10:16:23.860Z,15192.00
2018-10-02T10:17:24.036Z,12836.00
2018-10-02T10:18:23.624Z,10796.00
2018-10-02T10:19:23.526Z,10428.00
2018-10-02T10:20:23.426Z,11872.00
2018-10-02T10:21:23.327Z,12504.00
2018-10-02T10:22:23.230Z,14228.00
2018-10-02T10:23:23.127Z,15872.00
2018-10-02T10:24:23.029Z,14128.00
2018-10-02T10:25:22.928Z,12492.00
2018-10-02T10:26:22.860Z,12896.00
2018-10-02T10:27:22.730Z,9384.00
2018-10-02T10:28:22.640Z,8972.00
2018-10-02T10:29:22.531Z,10788.00
2018-10-02T10:30:22.431Z,9924.00
2018-10-02T10:31:22.332Z,8888.00
2018-10-02T10:32:22.232Z,8416.00
2018-10-02T10:33:22.148Z,7672.00
2018-10-02T10:34:22.044Z,10028.00
2018-10-02T10:35:21.935Z,11224.00
2018-10-02T10:36:21.835Z,12892.00
2018-10-02T10:37:21.989Z,15176.00
2018-10-02T10:38:21.636Z,16980.00
2018-10-02T10:39:21.540Z,16204.00
2018-10-02T10:40:21.469Z,17952.00
2018-10-02T10:41:21.338Z,15840.00
2018-10-02T10:42:21.239Z,15736.00
2018-10-02T10:43:21.139Z,15788.00
2018-10-02T10:44:21.040Z,17212.00
2018-10-02T10:45:20.940Z,15068.00
2018-10-02T10:46:20.852Z,13320.00
2018-10-02T10:47:20.740Z,13584.00
2018-10-02T10:48:20.631Z,11952.00
2018-10-02T10:49:20.531Z,11936.00
2018-10-02T10:50:20.434Z,12976.00
2018-10-02T10:51:20.331Z,11336.00
2018-10-02T10:52:20.268Z,8756.00
2018-10-02T10:53:20.133Z,9200.00
2018-10-02T10:54:20.034Z,7372.00
2018-10-02T10:55:19.934Z,6248.00
2018-10-02T10:56:19.841Z,6096.00
2018-10-02T10:57:19.735Z,5780.00
2018-10-02T10:58:19.638Z,6140.00
2018-10-02T10:59:19.536Z,8536.00
2018-10-02T11:00:19.440Z,10924.00
2018-10-02T11:01:19.336Z,13000.00
2018-10-02T11:02:19.238Z,12884.00
2018-10-02T11:03:19.138Z,12340.00
2018-10-02T11:04:19.039Z,10976.00
2018-10-02T11:05:18.939Z,8416.00
2018-10-02T11:06:18.839Z,9472.00
2018-10-02T11:07:18.740Z,10024.00
2018-10-02T11:08:18.641Z,8616.00
2018-10-02T11:09:18.597Z,8120.00
2018-10-02T11:10:18.443Z,8128.00
2018-10-02T11:11:18.342Z,8008.00
2018-10-02T11:12:18.231Z,6564.00
2018-10-02T11:13:18.144Z,5360.00
2018-10-02T11:14:18.044Z,5184.00
2018-10-02T11:15:17.982Z,7424.00
2018-10-02T11:16:17.832Z,7272.00
2018-10-02T11:17:18.034Z,6692.00
2018-10-02T11:18:17.633Z,6704.00
2018-10-02T11:19:17.534Z,6872.00
2018-10-02T11:20:17.435Z,7152.00
2018-10-02T11:21:17.335Z,6296.00
2018-10-02T11:22:17.239Z,6036.00
2018-10-02T11:23:17.136Z,6800.00
2018-10-02T11:24:17.027Z,6172.00
2018-10-02T11:25:16.944Z,6372.00
2018-10-02T11:26:16.826Z,5652.00
2018-10-02T11:27:16.726Z,5524.00
2018-10-02T11:28:16.627Z,5352.00
2018-10-02T11:29:16.528Z,5532.00
2018-10-02T11:30:16.430Z,7592.00
2018-10-02T11:31:16.361Z,7792.00
2018-10-02T11:32:16.230Z,6464.00
2018-10-02T11:33:16.118Z,5548.00
2018-10-02T11:34:16.018Z,6952.00
2018-10-02T11:35:15.971Z,7732.00
2018-10-02T11:36:15.820Z,8428.00
2018-10-02T11:37:15.998Z,9712.00
2018-10-02T11:38:15.619Z,11152.00
2018-10-02T11:39:15.520Z,11952.00
2018-10-02T11:40:15.411Z,13380.00
2018-10-02T11:41:15.310Z,14412.00
2018-10-02T11:42:15.211Z,14436.00
2018-10-02T11:43:15.118Z,14044.00
2018-10-02T11:44:15.122Z,13532.00
2018-10-02T11:45:14.913Z,12660.00
2018-10-02T11:46:14.813Z,11556.00
2018-10-02T11:47:14.713Z,11360.00
2018-10-02T11:48:14.601Z,11680.00
2018-10-02T11:49:14.510Z,12032.00
2018-10-02T11:50:14.402Z,11216.00
2018-10-02T11:51:14.302Z,11520.00
2018-10-02T11:52:14.202Z,11412.00
2018-10-02T11:53:14.104Z,11648.00
2018-10-02T11:54:14.004Z,11760.00
2018-10-02T11:55:13.908Z,12552.00
2018-10-02T11:56:13.794Z,14288.00
2018-10-02T11:57:13.694Z,15188.00
2018-10-02T11:58:13.596Z,17632.00
2018-10-02T11:59:13.495Z,18080.00
2018-10-02T12:00:13.396Z,18816.00
2018-10-02T12:01:13.369Z,19776.00
2018-10-02T12:02:13.185Z,19968.00
2018-10-02T12:03:13.095Z,18816.00
2018-10-02T12:04:12.986Z,17084.00
2018-10-02T12:05:12.886Z,16844.00
2018-10-02T12:06:12.786Z,17920.00
2018-10-02T12:07:12.686Z,17664.00
2018-10-02T12:08:12.587Z,16312.00
2018-10-02T12:09:12.526Z,15536.00
2018-10-02T12:10:12.388Z,14388.00
2018-10-02T12:11:12.276Z,12236.00
2018-10-02T12:12:12.177Z,11496.00
2018-10-02T12:13:12.100Z,12520.00
2018-10-02T12:14:12.149Z,12904.00
2018-10-02T12:15:11.908Z,12460.00
2018-10-02T12:16:11.779Z,11480.00
2018-10-02T12:17:11.681Z,10488.00
2018-10-02T12:18:11.580Z,12112.00
2018-10-02T12:19:11.482Z,13204.00
2018-10-02T12:20:11.370Z,14072.00
2018-10-02T12:21:11.274Z,14304.00
2018-10-02T12:22:11.177Z,14812.00
2018-10-02T12:23:11.071Z,15172.00
2018-10-02T12:24:10.972Z,14216.00
2018-10-02T12:25:10.871Z,12940.00
2018-10-02T12:26:10.772Z,12148.00